createdAt,value
2023-01-03T00:04:34.542Z,101226.66
2023-01-03T00:09:37.281Z,101199.63
2023-01-03T00:14:43.884Z,101221.78
2023-01-03T00:19:46.798Z,101218.31
2023-01-03T00:24:50.119Z,101191.84
2023-01-03T00:29:52.815Z,101211.34
2023-01-03T00:34:59.018Z,101199.34
2023-01-03T00:40:06.575Z,101187.34
2023-01-03T00:45:10.734Z,101185.25
2023-01-03T00:50:13.604Z,101168.38
2023-01-03T00:55:16.413Z,101174.06
2023-01-03T01:00:19.140Z,101163.69
2023-01-03T01:05:22.526Z,101149.41
2023-01-03T01:10:25.597Z,101141.50
2023-01-03T01:15:28.499Z,101096.19
2023-01-03T01:20:31.134Z,101117.78
2023-01-03T01:25:34.993Z,101115.69
2023-01-03T01:30:38.107Z,101116.00
2023-01-03T01:35:40.896Z,101101.75
2023-01-03T01:40:43.690Z,101083.81
2023-01-03T01:45:46.961Z,101094.81
2023-01-03T01:50:53.753Z,101090.44
2023-01-03T01:56:29.284Z,101091.50
2023-01-03T02:01:32.702Z,101080.03
2023-01-03T02:06:35.941Z,101069.31
2023-01-03T02:11:47.773Z,101068.97
2023-01-03T02:17:08.453Z,101056.00
2023-01-03T02:22:36.594Z,101053.22
2023-01-03T02:28:17.045Z,101056.78
2023-01-03T02:33:28.576Z,101048.31
2023-01-03T02:38:49.575Z,101045.31
2023-01-03T02:44:10.606Z,101041.25
2023-01-03T02:49:24.841Z,101019.06
2023-01-03T02:54:35.373Z,101008.53
2023-01-03T02:59:51.522Z,101028.84
2023-01-03T03:04:57.084Z,101005.47
2023-01-03T03:10:18.468Z,100994.53
2023-01-03T03:15:23.352Z,100963.50
2023-01-03T03:20:44.347Z,100979.94
2023-01-03T03:25:51.439Z,100975.53
2023-01-03T03:30:57.789Z,100972.72
2023-01-03T03:36:08.862Z,100954.03
2023-01-03T03:41:38.974Z,100946.25
2023-01-03T03:46:52.446Z,100933.03
2023-01-03T03:52:00.828Z,100936.88
2023-01-03T03:57:28.681Z,100926.81
2023-01-03T04:02:33.341Z,100921.50
2023-01-03T04:07:35.897Z,100911.41
2023-01-03T04:12:39.829Z,100912.81
2023-01-03T04:17:42.695Z,100905.41
2023-01-03T04:22:45.435Z,100894.91
2023-01-03T04:27:48.107Z,100891.38
2023-01-03T04:32:50.795Z,100884.72
2023-01-03T04:37:53.476Z,100879.78
2023-01-03T04:43:14.529Z,100869.66
2023-01-03T04:48:17.982Z,100863.47
2023-01-03T04:53:21.175Z,100856.25
2023-01-03T04:58:24.360Z,100849.47
2023-01-03T05:03:28.178Z,100843.78
2023-01-03T05:08:31.444Z,100837.56
2023-01-03T05:13:34.499Z,100837.13
2023-01-03T05:18:38.064Z,100821.91
2023-01-03T05:23:59.345Z,100817.88
2023-01-03T05:29:02.087Z,100803.13
2023-01-03T05:34:05.774Z,100813.84
2023-01-03T05:39:08.803Z,100810.44
2023-01-03T05:44:11.836Z,100801.66
2023-01-03T05:49:14.649Z,100800.22
2023-01-03T05:54:19.192Z,100801.59
2023-01-03T05:59:23.003Z,100786.72
2023-01-03T06:04:25.812Z,100775.06
2023-01-03T06:09:28.455Z,100775.16
2023-01-03T06:14:31.182Z,100755.75
2023-01-03T06:19:33.841Z,100754.25
2023-01-03T06:24:36.580Z,100748.13
2023-01-03T06:29:39.777Z,100756.66
2023-01-03T06:34:42.531Z,100721.31
2023-01-03T06:39:46.157Z,100727.94
2023-01-03T06:45:08.781Z,100719.94
2023-01-03T06:50:31.379Z,100713.31
2023-01-03T06:55:34.029Z,100696.50
2023-01-03T07:00:37.880Z,100683.06
2023-01-03T07:05:40.600Z,100675.66
2023-01-03T07:10:43.265Z,100675.94
2023-01-03T07:15:46.273Z,100670.69
2023-01-03T07:20:49.095Z,100669.78
2023-01-03T07:25:55.628Z,100660.72
2023-01-03T07:31:03.809Z,100648.56
2023-01-03T07:36:12.082Z,100644.19
2023-01-03T07:41:16.254Z,100640.50
2023-01-03T07:46:21.696Z,100632.47
2023-01-03T07:51:24.579Z,100628.78
2023-01-03T07:56:27.276Z,100583.13
2023-01-03T08:01:31.024Z,100601.47
2023-01-03T08:06:33.990Z,100599.66
2023-01-03T08:11:55.848Z,100587.94
2023-01-03T08:16:58.537Z,100575.34
2023-01-03T08:22:01.358Z,100553.53
2023-01-03T08:27:05.277Z,100547.03
2023-01-03T08:32:08.178Z,100535.78
2023-01-03T08:37:12.104Z,100529.22
2023-01-03T08:42:16.245Z,100537.03
2023-01-03T08:47:18.995Z,100532.06
2023-01-03T08:52:21.802Z,100518.53
2023-01-03T08:57:24.526Z,100506.69
2023-01-03T09:02:27.372Z,100504.91
2023-01-03T09:07:30.105Z,100499.94
2023-01-03T09:12:32.927Z,100486.47
2023-01-03T09:17:35.645Z,100480.84
2023-01-03T09:22:38.705Z,100486.44
2023-01-03T09:27:48.503Z,100489.19
2023-01-03T09:32:51.664Z,100473.06
2023-01-03T09:37:54.637Z,100469.94
2023-01-03T09:43:21.462Z,100479.75
2023-01-03T09:48:35.853Z,100439.00
2023-01-03T09:53:58.445Z,100451.53
2023-01-03T09:59:27.567Z,100452.41
2023-01-03T10:04:36.312Z,100442.78
2023-01-03T10:09:47.603Z,100442.53
2023-01-03T10:15:06.059Z,100428.19
2023-01-03T10:20:47.266Z,100421.59
2023-01-03T10:25:50.106Z,100396.09
2023-01-03T10:31:08.674Z,100415.59
2023-01-03T10:36:13.981Z,100406.88
2023-01-03T10:41:22.034Z,100402.50
2023-01-03T10:46:27.138Z,100401.50
2023-01-03T10:51:43.210Z,100378.56
2023-01-03T10:56:47.455Z,100371.63
2023-01-03T11:02:16.937Z,100365.66
2023-01-03T11:07:19.964Z,100365.75
2023-01-03T11:12:38.907Z,100349.25
2023-01-03T11:18:00.163Z,100334.91
2023-01-03T11:23:04.363Z,100343.97
2023-01-03T11:28:46.383Z,100337.53
2023-01-03T11:33:57.537Z,100333.41
2023-01-03T11:39:24.695Z,100318.25
2023-01-03T11:44:45.966Z,100320.78
2023-01-03T11:50:25.214Z,100301.03
2023-01-03T11:55:52.234Z,100291.47
2023-01-03T12:01:18.923Z,100283.81
2023-01-03T12:06:32.939Z,100278.09
2023-01-03T12:12:20.272Z,100261.03
2023-01-03T12:17:25.881Z,100270.50
2023-01-03T12:22:36.610Z,100248.66
2023-01-03T12:27:44.380Z,100256.38
2023-01-03T12:32:51.452Z,100251.00
2023-01-03T12:37:55.679Z,100232.06
2023-01-03T12:43:20.573Z,100218.75
2023-01-03T12:49:01.556Z,100222.16
2023-01-03T12:54:43.762Z,100216.25
2023-01-03T13:00:10.976Z,100195.66
2023-01-03T13:05:32.104Z,100208.19
2023-01-03T13:10:37.399Z,100191.69
2023-01-03T13:15:40.331Z,100196.28
2023-01-03T13:20:47.951Z,100187.97
2023-01-03T13:26:07.751Z,100172.41
2023-01-03T13:31:19.365Z,100177.94
2023-01-03T13:36:23.399Z,100155.09
2023-01-03T13:41:29.238Z,100148.94
2023-01-03T13:46:33.278Z,100139.06
2023-01-03T13:51:47.609Z,100145.72
2023-01-03T13:56:50.210Z,100132.41
2023-01-03T14:02:10.820Z,100116.25
2023-01-03T14:07:22.306Z,100116.88
2023-01-03T14:12:43.787Z,100097.69
2023-01-03T14:17:58.769Z,100100.41
2023-01-03T14:23:31.737Z,100098.03
2023-01-03T14:28:33.490Z,100089.38
2023-01-03T14:33:44.494Z,100097.34
2023-01-03T14:38:58.248Z,100094.41
2023-01-03T14:44:10.088Z,100083.22
2023-01-03T14:49:25.018Z,100083.22
2023-01-03T14:54:28.219Z,100078.84
2023-01-03T14:59:31.529Z,100079.72
2023-01-03T15:04:34.481Z,100066.91
2023-01-03T15:09:37.313Z,100059.97
2023-01-03T15:14:40.339Z,100059.97
2023-01-03T15:19:53.128Z,100060.25
2023-01-03T15:25:08.872Z,100040.97
2023-01-03T15:30:24.017Z,100036.50
2023-01-03T15:35:41.647Z,100022.72
2023-01-03T15:40:47.663Z,100013.63
2023-01-03T15:46:04.106Z,100005.78
2023-01-03T15:51:07.250Z,99994.72
2023-01-03T15:56:21.493Z,99981.28
2023-01-03T16:01:25.124Z,99971.72
2023-01-03T16:06:28.028Z,99944.59
2023-01-03T16:11:34.430Z,99921.34
2023-01-03T16:16:41.691Z,99915.38
2023-01-03T16:22:02.509Z,99904.94
2023-01-03T16:27:22.363Z,99895.25
2023-01-03T16:32:34.021Z,99876.34
2023-01-03T16:37:36.596Z,99860.66
2023-01-03T16:42:39.296Z,99839.78
2023-01-03T16:47:43.415Z,99821.63
2023-01-03T16:52:48.997Z,99837.31
2023-01-03T16:57:54.441Z,99833.94
2023-01-03T17:03:01.688Z,99826.59
2023-01-03T17:08:23.459Z,99823.59
2023-01-03T17:13:34.308Z,99827.81
2023-01-03T17:18:42.486Z,99823.81
2023-01-03T17:23:45.833Z,99815.97
2023-01-03T17:28:49.549Z,99817.22
2023-01-03T17:33:53.172Z,99822.03
2023-01-03T17:39:00.293Z,99814.16
2023-01-03T17:44:02.927Z,99811.19
2023-01-03T17:49:24.607Z,99787.66
2023-01-03T17:54:31.076Z,99785.41
2023-01-03T17:59:33.771Z,99793.75
2023-01-03T18:05:12.901Z,99798.41
2023-01-03T18:09:59.253Z,99787.28
2023-01-03T18:15:01.890Z,99775.03
2023-01-03T18:20:06.821Z,99779.94
2023-01-03T18:25:23.310Z,99772.25
2023-01-03T18:30:26.226Z,99765.28
2023-01-03T18:35:37.310Z,99759.78
2023-01-03T18:40:41.026Z,99746.09
2023-01-03T18:45:43.919Z,99743.81
2023-01-03T18:50:55.627Z,99724.69
2023-01-03T18:56:01.101Z,99720.72
2023-01-03T19:01:05.607Z,99707.41
2023-01-03T19:06:17.878Z,99705.66
2023-01-03T19:11:26.847Z,99701.44
2023-01-03T19:16:34.937Z,99686.91
2023-01-03T19:21:46.343Z,99676.75
2023-01-03T19:26:58.094Z,99671.88
2023-01-03T19:32:00.944Z,99660.69
2023-01-03T19:37:03.675Z,99655.47
2023-01-03T19:42:29.029Z,99636.97
2023-01-03T19:47:31.697Z,99644.69
2023-01-03T19:52:34.395Z,99642.44
2023-01-03T19:57:37.449Z,99631.72
2023-01-03T20:02:41.323Z,99629.25
2023-01-03T20:07:45.105Z,99604.25
2023-01-03T20:12:49.279Z,99586.06
2023-01-03T20:17:53.253Z,99558.63
2023-01-03T20:23:05.226Z,99590.41
2023-01-03T20:28:21.135Z,99572.00
2023-01-03T20:33:24.303Z,99578.69
2023-01-03T20:38:27.639Z,99571.34
2023-01-03T20:43:30.341Z,99572.47
2023-01-03T20:48:33.009Z,99563.50
2023-01-03T20:53:39.762Z,99550.97
2023-01-03T20:58:45.467Z,99557.47
2023-01-03T21:03:48.291Z,99543.56
2023-01-03T21:08:58.328Z,99548.41
2023-01-03T21:14:02.081Z,99528.44
2023-01-03T21:19:13.008Z,99517.28
2023-01-03T21:24:17.786Z,99505.50
2023-01-03T21:29:20.508Z,99503.72
2023-01-03T21:34:23.305Z,99487.41
2023-01-03T21:39:26.008Z,99475.59
2023-01-03T21:44:28.978Z,99449.41
2023-01-03T21:49:31.619Z,99386.53
2023-01-03T21:54:34.315Z,99409.16
2023-01-03T21:59:38.356Z,99420.91
2023-01-03T22:04:41.208Z,99437.97
2023-01-03T22:10:02.510Z,99455.41
2023-01-03T22:15:05.872Z,99460.13
2023-01-03T22:20:13.936Z,99451.06
2023-01-03T22:25:19.327Z,99463.13
2023-01-03T22:30:22.075Z,99448.25
2023-01-03T22:35:25.171Z,99440.75
2023-01-03T22:40:27.861Z,99433.69
2023-01-03T22:45:30.558Z,99423.03
2023-01-03T22:50:33.415Z,99418.59
2023-01-03T22:55:40.988Z,99423.31
2023-01-03T23:00:46.183Z,99419.63
2023-01-03T23:05:48.982Z,99431.56
2023-01-03T23:11:11.669Z,99422.63
2023-01-03T23:16:14.440Z,99414.16
2023-01-03T23:21:17.289Z,99373.88
2023-01-03T23:26:19.995Z,99401.13
2023-01-03T23:31:23.181Z,99363.31
2023-01-03T23:36:26.473Z,99398.19
2023-01-03T23:41:29.348Z,99399.34
2023-01-03T23:46:32.111Z,99387.94
2023-01-03T23:51:34.857Z,99399.09
2023-01-03T23:56:37.912Z,99389.91
